Port Ludlow, Washington
Current Conditions -  °F | °C
As of 11:53 PM on Friday 19 Dec 2014 (Local Time) from KPAE Reporting Station
Light Rain Light Rain  
Wind Chill: 42°   Ceiling: 5500
Heat Index: 46°   Visibility: 10mi
Dew Point: 37°   Wind: 8mph
Humidity: 71%   Direction: 150°SSE
Pressure: 29.85"   Gusts: NA
Location:  47.93°N, 122.69°W
Report Text: KPAE 200753Z AUTO 15007KT 10SM -RA BKN055 OVC070 08/03 A2985 RMK AO2 RAB50 SLP111 P0000 T00780028 401000067 TSNO
Loading
Personal Weather Stations






























Interactive Weather Map New forecast layout! Learn more

10-Day Weather Forecast

Advertisements
Track Severe Weather on mobile